Time;durP1;ratioP1;P1;durP2;ratioP2;P2;SDS_P1;SDS_P2;PMS_P1;PMS_P2;Temp;Humidity;BMP_temperature;BMP_pressure;BME280_temperature;BME280_humidity;BME280_pressure;Samples;Min_cycle;Max_cycle;Signal;HPM_P1;HPM_P2
2022/01/21 00:00:50;;;;;;;;;;;0.70;99.90;;;;;;5051106;28;19932;-80
2022/01/21 00:03:17;;;;;;;;;;;0.70;99.90;;;;;;5054821;28;20402;-80
2022/01/21 00:05:44;;;;;;;;;;;0.70;99.90;;;;;;5050154;28;19929;-81
2022/01/21 00:08:11;;;;;;;;;;;0.70;99.90;;;;;;5051699;28;20402;-80
2022/01/21 00:10:38;;;;;;;;;;;0.70;99.90;;;;;;5051087;28;19931;-80
2022/01/21 00:13:14;;;;;;;;;;;0.70;99.90;;;;;;5033067;28;20027;-81
2022/01/21 00:15:41;;;;;;;;;;;0.70;99.90;;;;;;5041123;28;19925;-80
2022/01/21 00:18:11;;;;;;;;;;;0.70;99.90;;;;;;5053485;28;20308;-80
2022/01/21 00:31:36;;;;;;;;;;;0.70;99.90;;;;;;5050038;28;19943;-80
2022/01/21 00:34:04;;;;;;;;;;;0.70;99.90;;;;;;5040429;28;19936;-80
2022/01/21 00:36:32;;;;;;;;;;;0.70;99.90;;;;;;5038925;28;19940;-80
2022/01/21 00:38:59;;;;;;;;;;;0.70;99.90;;;;;;5038465;28;19924;-80
2022/01/21 00:41:30;;;;;;;;;;;0.70;99.90;;;;;;5060577;28;19978;-81
2022/01/21 00:43:57;;;;;;;;;;;0.70;99.90;;;;;;5064181;28;19924;-81
2022/01/21 00:46:24;;;;;;;;;;;0.70;99.90;;;;;;5037621;28;20019;-80
2022/01/21 00:48:53;;;;;;;;;;;0.70;99.90;;;;;;5040214;28;19929;-80
2022/01/21 00:51:21;;;;;;;;;;;0.70;99.90;;;;;;5039319;28;19925;-80
2022/01/21 00:53:48;;;;;;;;;;;0.70;99.90;;;;;;5038952;28;20457;-80
2022/01/21 00:56:15;;;;;;;;;;;0.70;99.90;;;;;;5043864;28;19928;-80
2022/01/21 00:58:42;;;;;;;;;;;0.70;99.90;;;;;;5040032;28;19994;-80
2022/01/21 01:01:09;;;;;;;;;;;0.70;99.90;;;;;;5051463;28;19931;-80
2022/01/21 01:03:36;;;;;;;;;;;0.70;99.90;;;;;;5036682;28;20346;-81
2022/01/21 01:06:03;;;;;;;;;;;0.70;99.90;;;;;;5053930;28;19935;-80
2022/01/21 01:08:31;;;;;;;;;;;0.70;99.90;;;;;;5040639;28;20015;-81
2022/01/21 01:21:57;;;;;;;;;;;0.70;99.90;;;;;;5051937;28;19963;-80
2022/01/21 01:29:57;;;;;;;;;;;0.70;99.90;;;;;;5054580;28;19920;-81
2022/01/21 01:32:26;;;;;;;;;;;0.60;99.90;;;;;;5051375;28;19955;-80
2022/01/21 01:34:53;;;;;;;;;;;0.60;99.90;;;;;;5037357;28;19971;-80
2022/01/21 01:37:34;;;;;;;;;;;0.60;99.90;;;;;;5034091;28;19984;-80
2022/01/21 01:40:16;;;;;;;;;;;0.60;99.90;;;;;;5049293;28;20394;-80
2022/01/21 01:51:05;;;;;;;;;;;0.60;99.90;;;;;;5054612;28;20323;-80
2022/01/21 01:53:34;;;;;;;;;;;0.70;99.90;;;;;;5035099;28;19925;-80
2022/01/21 01:56:05;;;;;;;;;;;0.60;99.90;;;;;;5052814;28;19928;-80
2022/01/21 01:58:34;;;;;;;;;;;0.60;99.90;;;;;;5036087;28;19972;-80
2022/01/21 02:01:01;;;;;;;;;;;0.60;99.90;;;;;;5049120;28;19932;-80
2022/01/21 02:03:28;;;;;;;;;;;0.60;99.90;;;;;;5037149;28;20333;-81
2022/01/21 02:05:56;;;;;;;;;;;0.60;99.90;;;;;;5040033;28;19933;-82
2022/01/21 02:08:23;;;;;;;;;;;0.60;99.90;;;;;;5053300;28;19925;-81
2022/01/21 02:10:50;;;;;;;;;;;0.60;99.90;;;;;;5052600;28;20276;-81
2022/01/21 02:13:21;;;;;;;;;;;0.50;99.90;;;;;;5040168;28;19932;-81
2022/01/21 02:16:05;;;;;;;;;;;0.60;99.90;;;;;;5038300;28;19932;-81
2022/01/21 02:21:35;;;;;;;;;;;0.60;99.90;;;;;;5026168;28;19933;-81
2022/01/21 02:24:04;;;;;;;;;;;0.60;99.90;;;;;;5032138;28;20332;-81
2022/01/21 02:26:35;;;;;;;;;;;0.60;99.90;;;;;;5036167;28;20074;-81
2022/01/21 02:29:04;;;;;;;;;;;0.60;99.90;;;;;;5030792;28;20279;-81
2022/01/21 02:31:31;;;;;;;;;;;0.60;99.90;;;;;;5033372;28;19929;-81
2022/01/21 02:33:59;;;;;;;;;;;0.60;99.90;;;;;;5040098;28;19925;-81
2022/01/21 02:36:27;;;;;;;;;;;0.60;99.90;;;;;;5038670;28;19925;-81
2022/01/21 02:38:55;;;;;;;;;;;0.60;99.90;;;;;;5034348;28;19975;-81
2022/01/21 02:41:22;;;;;;;;;;;0.60;99.90;;;;;;5036013;28;19947;-81
2022/01/21 02:43:50;;;;;;;;;;;0.60;99.90;;;;;;5035643;28;19934;-80
2022/01/21 02:46:17;;;;;;;;;;;0.60;99.90;;;;;;5034523;28;20022;-81
2022/01/21 02:48:45;;;;;;;;;;;0.60;99.90;;;;;;5038128;28;19940;-81
2022/01/21 02:51:14;;;;;;;;;;;0.60;99.90;;;;;;5037289;28;19925;-80
2022/01/21 02:56:27;;;;;;;;;;;0.60;99.90;;;;;;5022352;28;19925;-81
2022/01/21 02:58:54;;;;;;;;;;;0.50;99.90;;;;;;5049792;28;19936;-80
2022/01/21 03:01:25;;;;;;;;;;;0.50;99.90;;;;;;5050124;28;20313;-81
2022/01/21 03:03:52;;;;;;;;;;;0.60;99.90;;;;;;5033626;28;20406;-81
2022/01/21 03:06:20;;;;;;;;;;;0.50;99.90;;;;;;5030945;28;19979;-81
2022/01/21 03:08:49;;;;;;;;;;;0.60;99.90;;;;;;5036412;28;19924;-81
2022/01/21 03:11:17;;;;;;;;;;;0.60;99.90;;;;;;5037884;28;20016;-81
2022/01/21 03:13:44;;;;;;;;;;;0.60;99.90;;;;;;5051155;28;19935;-81
2022/01/21 03:16:11;;;;;;;;;;;0.60;99.90;;;;;;5039123;28;19925;-82
2022/01/21 03:18:38;;;;;;;;;;;0.60;99.90;;;;;;5049069;28;19929;-81
2022/01/21 03:21:07;;;;;;;;;;;0.60;99.90;;;;;;5036946;28;19940;-81
2022/01/21 03:23:34;;;;;;;;;;;0.60;99.90;;;;;;5053533;28;19929;-81
2022/01/21 03:26:03;;;;;;;;;;;0.50;99.90;;;;;;5035740;28;19964;-81
2022/01/21 03:28:44;;;;;;;;;;;0.50;99.90;;;;;;5034410;28;19929;-81
2022/01/21 03:33:52;;;;;;;;;;;0.50;99.90;;;;;;5856563;22;19971;-81
2022/01/21 03:36:20;;;;;;;;;;;0.50;99.90;;;;;;5034767;28;19929;-81
2022/01/21 03:38:47;;;;;;;;;;;0.60;99.90;;;;;;5029089;28;20395;-81
2022/01/21 03:41:15;;;;;;;;;;;0.50;99.90;;;;;;5026134;28;19941;-81
2022/01/21 03:43:43;;;;;;;;;;;0.50;99.90;;;;;;5009132;28;19925;-81
2022/01/21 03:46:10;;;;;;;;;;;0.50;99.90;;;;;;5009262;28;20411;-81
2022/01/21 03:48:38;;;;;;;;;;;0.50;99.90;;;;;;5009177;28;19925;-81
2022/01/21 03:51:05;;;;;;;;;;;0.50;99.90;;;;;;5010104;28;19925;-81
2022/01/21 03:53:32;;;;;;;;;;;0.50;99.90;;;;;;5013355;28;20368;-81
2022/01/21 03:55:59;;;;;;;;;;;0.50;99.90;;;;;;5015216;28;19980;-81
2022/01/21 03:58:29;;;;;;;;;;;0.60;99.90;;;;;;5010561;28;20342;-81
2022/01/21 04:35:53;;;;;;;;;;;0.60;99.90;;;;;;5128519;23;19955;-80
2022/01/21 04:38:23;;;;;;;;;;;0.60;99.90;;;;;;5038398;28;20012;-80
2022/01/21 04:40:56;;;;;;;;;;;0.60;99.90;;;;;;5031195;28;20004;-81
2022/01/21 04:48:53;;;;;;;;;;;0.60;99.90;;;;;;5010160;28;19929;-81
2022/01/21 04:51:27;;;;;;;;;;;0.60;99.90;;;;;;4998939;28;20060;-81
2022/01/21 04:53:55;;;;;;;;;;;0.50;99.90;;;;;;5026663;23;19933;-80
2022/01/21 04:56:25;;;;;;;;;;;0.60;99.90;;;;;;4998069;28;20008;-82
2022/01/21 04:58:54;;;;;;;;;;;0.60;99.90;;;;;;5014041;28;20346;-82
2022/01/21 06:08:06;;;;;;;;;;;0.40;99.90;;;;;;4954540;28;20025;-80
2022/01/21 06:10:33;;;;;;;;;;;0.40;99.90;;;;;;4964838;28;19927;-80
2022/01/21 06:13:00;;;;;;;;;;;0.40;99.90;;;;;;4974827;28;19994;-81
2022/01/21 06:15:28;;;;;;;;;;;0.40;99.90;;;;;;4972331;28;19926;-81
2022/01/21 06:17:55;;;;;;;;;;;0.40;99.90;;;;;;4976888;28;20368;-81
2022/01/21 06:20:22;;;;;;;;;;;0.30;99.90;;;;;;4974603;28;20310;-82
2022/01/21 06:22:51;;;;;;;;;;;0.40;99.90;;;;;;4968331;28;19931;-81
2022/01/21 06:25:19;;;;;;;;;;;0.40;99.90;;;;;;4990593;28;19933;-82
2022/01/21 06:27:47;;;;;;;;;;;0.40;99.90;;;;;;4976388;28;19932;-82
2022/01/21 06:30:14;;;;;;;;;;;0.40;99.90;;;;;;4981600;28;19934;-82
2022/01/21 06:32:41;;;;;;;;;;;0.40;99.90;;;;;;4967705;28;19933;-82
2022/01/21 06:35:09;;;;;;;;;;;0.40;99.90;;;;;;4976914;28;19965;-82
2022/01/21 06:37:36;;;;;;;;;;;0.30;99.90;;;;;;4975783;28;19926;-81
2022/01/21 06:40:04;;;;;;;;;;;0.40;99.90;;;;;;4986536;28;20463;-82
2022/01/21 06:42:32;;;;;;;;;;;0.30;99.90;;;;;;4980902;28;19937;-82
2022/01/21 06:45:00;;;;;;;;;;;0.30;99.90;;;;;;4979938;28;19992;-82
2022/01/21 06:47:27;;;;;;;;;;;0.40;99.90;;;;;;4979663;28;19926;-81
2022/01/21 06:49:58;;;;;;;;;;;0.30;99.90;;;;;;4972903;28;19926;-82
2022/01/21 06:52:26;;;;;;;;;;;0.30;99.90;;;;;;4973221;28;19928;-81
2022/01/21 06:54:53;;;;;;;;;;;0.30;99.90;;;;;;4992187;28;19926;-81
2022/01/21 06:57:20;;;;;;;;;;;0.30;99.90;;;;;;4973637;28;20021;-82
2022/01/21 06:59:49;;;;;;;;;;;0.40;99.90;;;;;;4980998;28;19973;-81
2022/01/21 07:02:18;;;;;;;;;;;0.30;99.90;;;;;;4963104;28;19926;-82
2022/01/21 07:04:46;;;;;;;;;;;0.30;99.90;;;;;;4987477;28;20021;-81
2022/01/21 07:07:13;;;;;;;;;;;0.30;99.90;;;;;;4973372;28;19977;-81
2022/01/21 07:09:40;;;;;;;;;;;0.30;99.90;;;;;;4991082;28;20399;-81
2022/01/21 07:33:38;;;;;;;;;;;0.30;99.90;;;;;;4987550;28;19936;-81
2022/01/21 07:36:05;;;;;;;;;;;0.30;99.90;;;;;;4986995;28;19926;-80
2022/01/21 07:38:35;;;;;;;;;;;0.40;99.90;;;;;;4990285;28;20163;-80
2022/01/21 07:41:02;;;;;;;;;;;0.40;99.90;;;;;;4970519;28;19932;-82
2022/01/21 07:43:29;;;;;;;;;;;0.30;99.90;;;;;;4993259;28;19944;-81
2022/01/21 07:45:56;;;;;;;;;;;0.40;99.90;;;;;;4991174;28;20026;-80
2022/01/21 07:48:23;;;;;;;;;;;0.40;99.90;;;;;;4971247;28;19960;-81
2022/01/21 07:50:51;;;;;;;;;;;0.40;99.90;;;;;;4992708;28;19940;-80
2022/01/21 07:53:19;;;;;;;;;;;0.30;99.90;;;;;;4987844;28;20372;-80
2022/01/21 07:55:49;;;;;;;;;;;0.30;99.90;;;;;;4982828;28;19934;-81
2022/01/21 07:58:17;;;;;;;;;;;0.30;99.90;;;;;;4989487;28;19966;-80
2022/01/21 08:00:44;;;;;;;;;;;0.40;99.90;;;;;;4997566;28;19975;-81
2022/01/21 08:03:12;;;;;;;;;;;0.30;99.90;;;;;;4986742;28;20359;-80
2022/01/21 08:05:44;;;;;;;;;;;0.40;99.90;;;;;;4974103;28;19926;-81
2022/01/21 08:08:14;;;;;;;;;;;0.40;99.90;;;;;;4968526;28;19957;-81
2022/01/21 08:10:41;;;;;;;;;;;0.40;99.90;;;;;;4989081;28;19977;-80
2022/01/21 08:13:08;;;;;;;;;;;0.40;99.90;;;;;;4988444;28;20036;-80
2022/01/21 08:15:35;;;;;;;;;;;0.40;99.90;;;;;;4992427;28;20009;-81
2022/01/21 08:18:03;;;;;;;;;;;0.40;99.90;;;;;;4994281;28;20093;-80
2022/01/21 08:20:30;;;;;;;;;;;0.40;99.90;;;;;;4975354;28;19932;-81
2022/01/21 08:22:57;;;;;;;;;;;0.50;99.90;;;;;;4985953;28;19926;-81
2022/01/21 08:25:25;;;;;;;;;;;0.40;99.90;;;;;;4997341;28;19925;-81
2022/01/21 08:27:53;;;;;;;;;;;0.40;99.90;;;;;;4974725;28;20026;-80
2022/01/21 08:30:20;;;;;;;;;;;0.40;99.90;;;;;;4988571;28;19957;-81
2022/01/21 08:32:48;;;;;;;;;;;0.40;99.90;;;;;;5005235;28;19984;-81
2022/01/21 08:35:15;;;;;;;;;;;0.40;99.90;;;;;;4992513;28;19925;-81
2022/01/21 08:37:42;;;;;;;;;;;0.50;99.90;;;;;;4996530;28;19976;-81
2022/01/21 08:40:10;;;;;;;;;;;0.50;99.90;;;;;;4972052;28;19937;-80
2022/01/21 08:42:38;;;;;;;;;;;0.50;99.90;;;;;;4974817;28;20411;-80
2022/01/21 08:45:10;;;;;;;;;;;0.40;99.90;;;;;;4996785;28;19930;-81
2022/01/21 08:47:38;;;;;;;;;;;0.50;99.90;;;;;;4990912;28;19961;-80
2022/01/21 08:50:08;;;;;;;;;;;0.50;99.90;;;;;;4992070;28;20446;-80
2022/01/21 08:52:37;;;;;;;;;;;0.50;99.90;;;;;;5002902;28;20012;-80
2022/01/21 08:55:05;;;;;;;;;;;0.50;99.90;;;;;;4964984;28;20330;-81
2022/01/21 08:57:34;;;;;;;;;;;0.50;99.90;;;;;;4990449;28;20383;-78
2022/01/21 09:00:03;;;;;;;;;;;0.50;99.90;;;;;;4980386;28;19930;-79
2022/01/21 09:02:30;;;;;;;;;;;0.50;99.90;;;;;;4975370;28;19929;-79
2022/01/21 09:04:57;;;;;;;;;;;0.50;99.90;;;;;;4970642;28;19933;-79
2022/01/21 09:07:24;;;;;;;;;;;0.50;99.90;;;;;;4977746;28;19965;-78
2022/01/21 09:09:51;;;;;;;;;;;0.50;99.90;;;;;;4978423;28;19930;-79
2022/01/21 09:12:20;;;;;;;;;;;0.50;99.90;;;;;;4984990;28;20507;-79
2022/01/21 09:14:48;;;;;;;;;;;0.50;99.90;;;;;;4977662;28;20387;-79
2022/01/21 09:17:17;;;;;;;;;;;0.50;99.90;;;;;;4984274;28;19945;-79
2022/01/21 09:19:44;;;;;;;;;;;0.50;99.90;;;;;;4980475;28;19930;-79
2022/01/21 09:22:11;;;;;;;;;;;0.50;99.90;;;;;;4984008;28;20700;-79
2022/01/21 09:24:39;;;;;;;;;;;0.60;99.90;;;;;;4988498;28;19926;-79
2022/01/21 09:27:06;;;;;;;;;;;0.60;99.90;;;;;;4983868;28;19933;-79
2022/01/21 09:29:33;;;;;;;;;;;0.60;99.90;;;;;;4984424;28;19925;-79
2022/01/21 09:32:01;;;;;;;;;;;0.50;99.90;;;;;;4975461;28;20524;-79
2022/01/21 09:34:30;;;;;;;;;;;0.50;99.90;;;;;;4977975;28;19926;-80
2022/01/21 09:36:58;;;;;;;;;;;0.60;99.90;;;;;;4982731;28;20013;-80
2022/01/21 09:39:25;;;;;;;;;;;0.60;99.90;;;;;;4983137;28;20406;-79
2022/01/21 09:41:54;;;;;;;;;;;0.60;99.90;;;;;;4978532;28;20360;-79
2022/01/21 09:44:22;;;;;;;;;;;0.50;99.90;;;;;;4968256;28;19993;-79
2022/01/21 09:46:50;;;;;;;;;;;0.60;99.90;;;;;;4981192;28;19926;-80
2022/01/21 09:49:26;;;;;;;;;;;0.60;99.90;;;;;;4973291;28;22844;-80
2022/01/21 09:51:55;;;;;;;;;;;0.60;99.90;;;;;;4958950;28;20019;-80
2022/01/21 09:54:23;;;;;;;;;;;0.60;99.90;;;;;;4975580;28;20032;-79
2022/01/21 09:56:53;;;;;;;;;;;0.60;99.90;;;;;;4987789;28;19997;-79
2022/01/21 09:59:21;;;;;;;;;;;0.60;99.90;;;;;;4982397;28;19933;-79
2022/01/21 10:01:50;;;;;;;;;;;0.60;99.90;;;;;;4978016;28;19926;-79
2022/01/21 10:04:18;;;;;;;;;;;0.60;99.90;;;;;;4985174;28;19932;-79
2022/01/21 10:06:45;;;;;;;;;;;0.60;99.90;;;;;;4979295;28;19953;-79
2022/01/21 10:09:16;;;;;;;;;;;0.60;99.90;;;;;;4982961;28;19926;-79
2022/01/21 10:11:48;;;;;;;;;;;0.60;99.90;;;;;;4967304;28;19933;-79
2022/01/21 10:14:15;;;;;;;;;;;0.60;99.90;;;;;;4963105;28;19957;-80
2022/01/21 10:16:43;;;;;;;;;;;0.60;99.90;;;;;;4976965;28;20435;-78
2022/01/21 10:19:11;;;;;;;;;;;0.60;99.90;;;;;;4978035;28;19930;-78
2022/01/21 10:21:43;;;;;;;;;;;0.60;99.90;;;;;;4983709;28;19955;-79
2022/01/21 10:24:11;;;;;;;;;;;0.60;99.90;;;;;;4979350;28;19926;-79
2022/01/21 10:26:46;;;;;;;;;;;0.60;99.90;;;;;;4978814;28;19965;-79
2022/01/21 10:29:14;;;;;;;;;;;0.60;99.90;;;;;;4979806;28;19968;-79
2022/01/21 10:31:51;;;;;;;;;;;0.70;99.90;;;;;;4983242;28;19933;-79
2022/01/21 10:34:24;;;;;;;;;;;0.60;99.90;;;;;;4985206;28;19926;-79
2022/01/21 10:36:55;;;;;;;;;;;0.60;99.90;;;;;;4980582;28;20542;-79
2022/01/21 10:39:29;;;;;;;;;;;0.60;99.90;;;;;;4980689;28;19933;-79
2022/01/21 10:41:59;;;;;;;;;;;0.60;99.90;;;;;;4963609;28;19926;-80
2022/01/21 10:44:28;;;;;;;;;;;0.60;99.90;;;;;;4961462;28;20130;-79
2022/01/21 10:47:02;;;;;;;;;;;0.60;99.90;;;;;;4965998;28;20006;-79
2022/01/21 10:49:31;;;;;;;;;;;0.70;99.90;;;;;;4965269;28;20020;-79
2022/01/21 10:51:58;;;;;;;;;;;0.70;99.90;;;;;;4960350;28;20380;-79
2022/01/21 10:54:30;;;;;;;;;;;0.70;99.90;;;;;;4975515;28;19933;-79
2022/01/21 10:57:14;;;;;;;;;;;0.70;99.90;;;;;;4984231;28;19997;-79
2022/01/21 10:59:52;;;;;;;;;;;0.70;99.90;;;;;;4979712;28;19930;-79
2022/01/21 11:02:33;;;;;;;;;;;0.70;99.90;;;;;;4976568;28;19937;-79
2022/01/21 11:05:04;;;;;;;;;;;0.70;99.90;;;;;;4982290;28;20447;-79
2022/01/21 11:07:48;;;;;;;;;;;0.60;99.90;;;;;;4958542;28;19937;-79
2022/01/21 11:10:32;;;;;;;;;;;0.60;99.90;;;;;;4963894;28;19929;-79
2022/01/21 11:13:01;;;;;;;;;;;0.60;99.90;;;;;;4978949;28;19957;-79
2022/01/21 11:15:38;;;;;;;;;;;0.70;99.90;;;;;;4982538;28;20407;-78
2022/01/21 11:18:06;;;;;;;;;;;0.60;99.90;;;;;;4982124;28;19980;-79
2022/01/21 11:20:36;;;;;;;;;;;0.70;99.90;;;;;;4982976;28;20570;-79
2022/01/21 11:23:03;;;;;;;;;;;0.60;99.90;;;;;;4974505;28;19944;-79
2022/01/21 11:25:48;;;;;;;;;;;0.60;99.90;;;;;;4965866;28;19941;-79
2022/01/21 11:28:19;;;;;;;;;;;0.60;99.90;;;;;;4981146;28;19926;-79
2022/01/21 11:30:46;;;;;;;;;;;0.70;99.90;;;;;;4956943;28;19936;-79
2022/01/21 11:33:13;;;;;;;;;;;0.70;99.90;;;;;;4979400;28;19933;-79
2022/01/21 11:35:40;;;;;;;;;;;0.70;99.90;;;;;;4982921;28;19980;-79
2022/01/21 11:38:11;;;;;;;;;;;0.70;99.90;;;;;;4963012;28;19964;-79
2022/01/21 11:40:38;;;;;;;;;;;0.70;99.90;;;;;;4965686;28;19940;-79
2022/01/21 11:43:06;;;;;;;;;;;0.70;99.90;;;;;;4965600;28;20360;-79
2022/01/21 11:46:05;;;;;;;;;;;0.70;99.90;;;;;;4986075;28;19977;-79
2022/01/21 11:48:51;;;;;;;;;;;0.70;99.90;;;;;;4965208;28;20024;-79
2022/01/21 11:51:19;;;;;;;;;;;0.70;99.90;;;;;;4967215;28;19940;-79
2022/01/21 11:53:47;;;;;;;;;;;0.70;99.90;;;;;;4963365;28;19930;-79
2022/01/21 11:56:35;;;;;;;;;;;0.80;99.90;;;;;;4964519;28;19932;-79
2022/01/21 11:59:11;;;;;;;;;;;0.80;99.90;;;;;;4978108;28;20093;-79
2022/01/21 12:01:46;;;;;;;;;;;0.80;99.90;;;;;;4981250;28;20223;-78
2022/01/21 12:04:14;;;;;;;;;;;0.80;99.90;;;;;;4979682;28;19941;-79
2022/01/21 12:06:41;;;;;;;;;;;0.80;99.90;;;;;;4965687;28;20017;-79
2022/01/21 12:09:10;;;;;;;;;;;0.80;99.90;;;;;;4983157;28;20110;-80
2022/01/21 12:11:38;;;;;;;;;;;0.80;99.90;;;;;;4985673;28;20661;-79
2022/01/21 12:14:28;;;;;;;;;;;0.90;99.90;;;;;;4986574;28;20440;-79
2022/01/21 12:17:11;;;;;;;;;;;0.90;99.90;;;;;;4980060;28;20399;-79
2022/01/21 12:19:39;;;;;;;;;;;0.90;99.90;;;;;;4985367;28;20009;-79
2022/01/21 12:22:14;;;;;;;;;;;0.90;99.90;;;;;;4980500;28;20463;-79
2022/01/21 12:25:04;;;;;;;;;;;1.00;99.90;;;;;;4986555;28;19934;-79
2022/01/21 12:27:31;;;;;;;;;;;1.00;99.90;;;;;;4979625;28;19933;-79
2022/01/21 12:30:25;;;;;;;;;;;1.00;99.90;;;;;;4985601;28;22050;-79
2022/01/21 12:32:55;;;;;;;;;;;1.00;99.90;;;;;;4963726;28;20101;-80
2022/01/21 12:35:42;;;;;;;;;;;1.00;99.90;;;;;;4981036;28;19940;-79
2022/01/21 12:40:55;;;;;;;;;;;1.00;99.90;;;;;;4997595;28;19929;-80
2022/01/21 12:43:42;;;;;;;;;;;1.10;99.90;;;;;;5003806;28;20026;-81
2022/01/21 12:46:10;;;;;;;;;;;1.10;99.90;;;;;;4987890;28;19981;-80
2022/01/21 12:48:39;;;;;;;;;;;1.10;99.90;;;;;;4982774;28;19929;-80
2022/01/21 12:51:45;;;;;;;;;;;1.20;99.90;;;;;;4963874;28;20061;-80
2022/01/21 12:56:58;;;;;;;;;;;1.20;99.90;;;;;;4964645;28;20012;-80
2022/01/21 12:59:26;;;;;;;;;;;1.20;99.90;;;;;;4985422;28;20164;-80
2022/01/21 13:01:54;;;;;;;;;;;1.20;99.90;;;;;;4983429;28;19933;-81
2022/01/21 13:04:34;;;;;;;;;;;1.20;99.90;;;;;;4988976;28;20013;-82
2022/01/21 13:07:07;;;;;;;;;;;1.20;99.90;;;;;;4986793;28;19925;-80
2022/01/21 13:09:50;;;;;;;;;;;1.20;99.90;;;;;;4977006;28;19932;-79
2022/01/21 13:12:21;;;;;;;;;;;1.20;99.90;;;;;;4978973;28;19933;-80
2022/01/21 13:14:52;;;;;;;;;;;1.20;99.90;;;;;;4985932;28;19932;-80
2022/01/21 13:17:20;;;;;;;;;;;1.20;99.90;;;;;;4979982;28;20543;-80
2022/01/21 13:19:49;;;;;;;;;;;1.20;99.90;;;;;;4980366;28;20009;-79
2022/01/21 13:22:17;;;;;;;;;;;1.30;99.90;;;;;;4985328;28;20339;-79
2022/01/21 13:24:58;;;;;;;;;;;1.30;99.90;;;;;;4962574;28;19933;-80
2022/01/21 13:27:26;;;;;;;;;;;1.30;99.90;;;;;;4990431;28;19926;-79
2022/01/21 13:29:58;;;;;;;;;;;1.30;99.90;;;;;;4981261;28;20400;-79
2022/01/21 13:32:25;;;;;;;;;;;1.20;99.90;;;;;;4983588;28;20159;-79
2022/01/21 13:35:05;;;;;;;;;;;1.30;99.90;;;;;;4978246;28;20377;-80
2022/01/21 13:37:32;;;;;;;;;;;1.30;99.90;;;;;;4973007;28;19980;-79
2022/01/21 13:40:00;;;;;;;;;;;1.30;99.90;;;;;;4976502;28;19934;-80
2022/01/21 13:42:29;;;;;;;;;;;1.30;99.90;;;;;;4979715;28;19926;-79
2022/01/21 13:44:58;;;;;;;;;;;1.30;99.90;;;;;;4973164;28;19926;-80
2022/01/21 13:47:31;;;;;;;;;;;1.30;99.90;;;;;;5004929;28;20025;-79
2022/01/21 13:50:00;;;;;;;;;;;1.30;99.90;;;;;;4975563;28;19930;-80
2022/01/21 13:52:34;;;;;;;;;;;1.30;99.90;;;;;;4987764;28;19965;-81
2022/01/21 13:55:01;;;;;;;;;;;1.30;99.90;;;;;;4988760;28;19926;-80
2022/01/21 13:57:29;;;;;;;;;;;1.30;99.90;;;;;;4988701;28;20566;-82
2022/01/21 13:59:59;;;;;;;;;;;1.30;99.90;;;;;;4997268;28;19996;-82
2022/01/21 14:02:26;;;;;;;;;;;1.30;99.90;;;;;;4979117;28;19944;-81
2022/01/21 14:04:54;;;;;;;;;;;1.30;99.90;;;;;;4987611;28;19934;-81
2022/01/21 14:07:36;;;;;;;;;;;1.30;99.90;;;;;;4992551;28;19972;-81
2022/01/21 14:10:07;;;;;;;;;;;1.30;99.90;;;;;;4990318;28;20025;-81
2022/01/21 14:12:36;;;;;;;;;;;1.30;99.90;;;;;;4989632;28;19925;-81
2022/01/21 14:15:04;;;;;;;;;;;1.30;99.90;;;;;;4981121;28;19941;-81
2022/01/21 14:17:31;;;;;;;;;;;1.30;99.90;;;;;;4988538;28;19930;-81
2022/01/21 14:29:42;;;;;;;;;;;1.30;99.90;;;;;;5411034;23;19973;-81
2022/01/21 14:32:16;;;;;;;;;;;1.30;99.90;;;;;;5000091;28;20331;-81
2022/01/21 14:34:44;;;;;;;;;;;1.30;99.90;;;;;;4967847;28;19934;-81
2022/01/21 14:37:16;;;;;;;;;;;1.30;99.90;;;;;;4978770;28;19925;-81
2022/01/21 14:42:44;;;;;;;;;;;1.30;99.90;;;;;;4948854;28;20204;-81
2022/01/21 14:45:16;;;;;;;;;;;1.30;99.90;;;;;;4966585;28;20153;-81
2022/01/21 14:47:44;;;;;;;;;;;1.30;99.90;;;;;;4973735;28;19952;-80
2022/01/21 14:50:14;;;;;;;;;;;1.30;99.90;;;;;;4974369;28;19976;-83
2022/01/21 14:52:47;;;;;;;;;;;1.30;99.90;;;;;;4963015;28;19969;-81
2022/01/21 14:55:16;;;;;;;;;;;1.30;99.90;;;;;;4998896;28;20162;-79
2022/01/21 14:58:09;;;;;;;;;;;1.30;99.90;;;;;;4966030;28;19926;-80
2022/01/21 15:00:38;;;;;;;;;;;1.30;99.90;;;;;;4966723;28;19926;-79
2022/01/21 15:03:09;;;;;;;;;;;1.30;99.90;;;;;;4970660;28;20000;-80
2022/01/21 15:05:37;;;;;;;;;;;1.30;99.90;;;;;;4965695;28;19926;-80
2022/01/21 15:08:05;;;;;;;;;;;1.30;99.90;;;;;;4970214;28;19936;-80
2022/01/21 15:10:40;;;;;;;;;;;1.30;99.90;;;;;;4968284;28;19957;-79
2022/01/21 15:16:08;;;;;;;;;;;1.30;99.90;;;;;;4968118;28;19992;-80
2022/01/21 15:18:36;;;;;;;;;;;1.30;99.90;;;;;;4969379;28;19937;-79
2022/01/21 15:21:03;;;;;;;;;;;1.20;99.90;;;;;;4960247;28;20444;-79
2022/01/21 15:23:30;;;;;;;;;;;1.30;99.90;;;;;;4974366;28;20131;-79
2022/01/21 15:25:59;;;;;;;;;;;1.30;99.90;;;;;;4979293;28;19926;-79
2022/01/21 15:28:26;;;;;;;;;;;1.30;99.90;;;;;;4974275;28;20308;-79
2022/01/21 15:30:53;;;;;;;;;;;1.20;99.90;;;;;;4979445;28;19937;-79
2022/01/21 15:33:22;;;;;;;;;;;1.30;99.90;;;;;;4961636;28;19933;-80
2022/01/21 15:35:49;;;;;;;;;;;1.20;99.90;;;;;;4973878;28;19930;-80
2022/01/21 15:38:16;;;;;;;;;;;1.20;99.90;;;;;;4976800;28;19930;-80
2022/01/21 15:40:43;;;;;;;;;;;1.20;99.90;;;;;;4977416;28;19933;-80
2022/01/21 15:43:10;;;;;;;;;;;1.20;99.90;;;;;;4984001;28;20292;-81
2022/01/21 15:45:37;;;;;;;;;;;1.20;99.90;;;;;;4981354;28;19926;-80
2022/01/21 15:48:04;;;;;;;;;;;1.20;99.90;;;;;;4971557;28;19934;-79
2022/01/21 15:50:32;;;;;;;;;;;1.20;99.90;;;;;;4969563;28;19930;-79
2022/01/21 15:52:59;;;;;;;;;;;1.20;99.90;;;;;;4975545;28;19980;-80
2022/01/21 15:55:26;;;;;;;;;;;1.20;99.90;;;;;;4969451;28;19938;-79
2022/01/21 15:57:54;;;;;;;;;;;1.20;99.90;;;;;;4967427;28;19957;-79
2022/01/21 16:00:21;;;;;;;;;;;1.20;99.90;;;;;;4978271;28;19938;-79
2022/01/21 16:02:49;;;;;;;;;;;1.20;99.90;;;;;;4964681;28;19934;-79
2022/01/21 16:05:17;;;;;;;;;;;1.20;99.90;;;;;;4991834;28;19940;-79
2022/01/21 16:07:45;;;;;;;;;;;1.20;99.90;;;;;;4964566;28;19976;-79
2022/01/21 16:10:12;;;;;;;;;;;1.20;99.90;;;;;;4964310;28;19925;-79
2022/01/21 16:12:39;;;;;;;;;;;1.20;99.90;;;;;;4988587;28;19972;-81
2022/01/21 16:15:08;;;;;;;;;;;1.10;99.90;;;;;;4981382;28;19915;-81
2022/01/21 16:17:35;;;;;;;;;;;1.10;99.90;;;;;;4991111;28;19930;-79
2022/01/21 16:20:03;;;;;;;;;;;1.10;99.90;;;;;;4988681;28;20994;-81
2022/01/21 16:22:31;;;;;;;;;;;1.10;99.90;;;;;;4986968;28;19953;-80
2022/01/21 16:24:59;;;;;;;;;;;1.10;99.90;;;;;;4973656;28;19936;-81
2022/01/21 16:27:26;;;;;;;;;;;1.10;99.90;;;;;;5006217;28;19926;-80
2022/01/21 16:29:53;;;;;;;;;;;1.10;99.90;;;;;;4972142;28;19969;-79
2022/01/21 16:32:20;;;;;;;;;;;1.10;99.90;;;;;;5013633;28;19976;-80
2022/01/21 16:34:49;;;;;;;;;;;1.10;99.90;;;;;;4971602;28;20537;-80
2022/01/21 16:37:16;;;;;;;;;;;1.10;99.90;;;;;;4972640;28;19938;-80
2022/01/21 16:39:43;;;;;;;;;;;1.00;99.90;;;;;;4977670;28;19926;-80
2022/01/21 16:42:12;;;;;;;;;;;1.00;99.90;;;;;;4977087;28;20313;-80
2022/01/21 16:44:39;;;;;;;;;;;1.10;99.90;;;;;;4987743;28;19926;-80
2022/01/21 16:47:06;;;;;;;;;;;1.10;99.90;;;;;;4976423;28;20478;-80
2022/01/21 16:49:33;;;;;;;;;;;1.10;99.90;;;;;;5009033;28;19949;-80
2022/01/21 16:52:00;;;;;;;;;;;1.10;99.90;;;;;;4982754;28;20009;-80
2022/01/21 16:54:28;;;;;;;;;;;1.00;99.90;;;;;;4978199;28;19917;-80
2022/01/21 16:56:56;;;;;;;;;;;1.00;99.90;;;;;;4988142;28;19930;-80
2022/01/21 16:59:25;;;;;;;;;;;1.00;99.90;;;;;;4993071;28;19934;-82
2022/01/21 17:01:52;;;;;;;;;;;1.00;99.90;;;;;;4990491;28;19969;-80
2022/01/21 17:04:19;;;;;;;;;;;1.00;99.90;;;;;;4987071;28;19934;-79
2022/01/21 17:06:47;;;;;;;;;;;1.00;99.90;;;;;;4985735;28;19980;-80
2022/01/21 17:09:14;;;;;;;;;;;1.00;99.90;;;;;;4992740;28;19965;-81
2022/01/21 17:11:41;;;;;;;;;;;1.10;99.90;;;;;;4990667;28;19957;-81
2022/01/21 17:14:08;;;;;;;;;;;1.00;99.90;;;;;;4985753;28;19932;-81
2022/01/21 17:16:37;;;;;;;;;;;1.00;99.90;;;;;;4996571;28;19958;-80
2022/01/21 17:19:05;;;;;;;;;;;1.00;99.90;;;;;;4993466;28;19926;-80
2022/01/21 17:21:32;;;;;;;;;;;1.00;99.90;;;;;;4987717;28;19927;-80
2022/01/21 17:23:59;;;;;;;;;;;1.00;99.90;;;;;;4997259;28;19926;-81
2022/01/21 17:26:26;;;;;;;;;;;1.00;99.90;;;;;;4981861;28;19929;-80
2022/01/21 17:28:54;;;;;;;;;;;1.00;99.90;;;;;;5025581;28;19998;-81
2022/01/21 17:31:21;;;;;;;;;;;1.00;99.90;;;;;;4993674;28;20417;-82
2022/01/21 17:33:50;;;;;;;;;;;1.00;99.90;;;;;;4986983;28;19954;-81
2022/01/21 17:36:18;;;;;;;;;;;1.00;99.90;;;;;;4977454;28;19926;-81
2022/01/21 17:38:46;;;;;;;;;;;1.00;99.90;;;;;;4993781;28;19927;-80
2022/01/21 17:41:15;;;;;;;;;;;1.00;99.90;;;;;;4987220;28;19930;-82
2022/01/21 17:43:42;;;;;;;;;;;1.00;99.90;;;;;;4995526;28;19923;-82
2022/01/21 17:46:09;;;;;;;;;;;0.90;99.90;;;;;;4991560;28;19926;-83
2022/01/21 17:48:38;;;;;;;;;;;1.00;99.90;;;;;;4989950;28;20360;-80
2022/01/21 17:51:07;;;;;;;;;;;1.00;99.90;;;;;;4981650;28;19980;-80
2022/01/21 17:53:35;;;;;;;;;;;1.00;99.90;;;;;;4980153;28;19996;-81
2022/01/21 17:56:02;;;;;;;;;;;1.00;99.90;;;;;;4993559;28;19937;-85
2022/01/21 17:58:29;;;;;;;;;;;1.00;99.90;;;;;;4996622;28;19934;-80